KCOF/COF METAR and TAF weather

Enter ICAO airport designator
Station Type Date Time Source
KCOF METAR 2019/10/15 07:56 UTC NOAA

KCOF 150756Z AUTO 15004KT 10SM HZ CLR 25/23 A3005 RMK AO2 VIS 2 1/4 RWY21 SLP180 T02490226 $


Station Type Date Time Source
KCOF Decoded METAR 2019/10/15 07:56 UTC NOAA

Cocoa / Patrick Air Force Base, FL, United States (KCOF) 28-14N 080-36W 3M
Oct 15, 2019 - 03:56 AM EDT / 2019.10.15 0756 UTC
Wind: from the SSE (150 degrees) at 5 MPH (4 KT):0
Visibility: 10 mile(s):0
Sky conditions: clear
Weather: haze
Temperature: 76.8 F (24.9 C)
Dew Point: 72.7 F (22.6 C)
Relative Humidity: 87%
Pressure (altimeter): 30.05 in. Hg (1017 hPa)
ob: KCOF 150756Z AUTO 15004KT 10SM HZ CLR 25/23 A3005 RMK AO2 VIS 2 1/4 RWY21 SLP180 T02490226
cycle: 8

Station Type Date Time Source
KCOF TAF 2019/10/14 10:59 UTC NOAA

TAF KCOF 141000Z 1410/1516 VRB06KT 9999 SCT040 QNH3000INS
BECMG 1417/1418 08010G15KT 9999 SCT035 QNH3002INS TX27/1417Z TN23/1410Z LAST NO
AMDS AFT 1416 NEXT 1510

Example: see airport list